sensor_id;sensor_type;location;lat;lon;timestamp;pressure;altitude;pressure_sealevel;temperature;humidity
54144;BME280;40050;47.324;18.792;2023-03-03T00:00:57;1006.31;;;4.44;61.11
54144;BME280;40050;47.324;18.792;2023-03-03T00:02:58;1006.30;;;4.44;61.10
54144;BME280;40050;47.324;18.792;2023-03-03T00:05:00;1006.20;;;4.40;61.10
54144;BME280;40050;47.324;18.792;2023-03-03T00:07:01;1006.26;;;4.43;61.14
54144;BME280;40050;47.324;18.792;2023-03-03T00:09:02;1006.25;;;4.41;61.04
54144;BME280;40050;47.324;18.792;2023-03-03T00:11:03;1006.16;;;4.38;61.07
54144;BME280;40050;47.324;18.792;2023-03-03T00:13:05;1006.22;;;4.39;61.17
54144;BME280;40050;47.324;18.792;2023-03-03T00:15:20;1006.16;;;4.38;61.20
54144;BME280;40050;47.324;18.792;2023-03-03T00:17:22;1006.16;;;4.38;61.15
54144;BME280;40050;47.324;18.792;2023-03-03T00:19:23;1006.16;;;4.39;61.27
54144;BME280;40050;47.324;18.792;2023-03-03T00:21:31;1006.09;;;4.36;61.27
54144;BME280;40050;47.324;18.792;2023-03-03T00:23:36;1006.09;;;4.40;61.28
54144;BME280;40050;47.324;18.792;2023-03-03T00:25:37;1006.06;;;4.40;61.33
54144;BME280;40050;47.324;18.792;2023-03-03T00:27:38;1006.08;;;4.44;61.27
54144;BME280;40050;47.324;18.792;2023-03-03T00:29:40;1005.93;;;4.42;61.21
54144;BME280;40050;47.324;18.792;2023-03-03T00:31:45;1006.10;;;4.47;61.26
54144;BME280;40050;47.324;18.792;2023-03-03T00:33:50;1006.08;;;4.42;61.77
54144;BME280;40050;47.324;18.792;2023-03-03T00:35:51;1006.11;;;4.38;62.08
54144;BME280;40050;47.324;18.792;2023-03-03T00:37:54;1006.05;;;4.34;62.19
54144;BME280;40050;47.324;18.792;2023-03-03T00:42:17;1006.00;;;4.31;62.46
54144;BME280;40050;47.324;18.792;2023-03-03T00:46:37;1006.02;;;4.30;62.95
54144;BME280;40050;47.324;18.792;2023-03-03T00:48:41;1006.03;;;4.36;62.98
54144;BME280;40050;47.324;18.792;2023-03-03T00:50:42;1006.06;;;4.39;62.79
54144;BME280;40050;47.324;18.792;2023-03-03T00:53:17;1006.04;;;4.41;62.72
54144;BME280;40050;47.324;18.792;2023-03-03T00:55:02;1006.01;;;4.38;62.88
54144;BME280;40050;47.324;18.792;2023-03-03T00:57:03;1006.01;;;4.39;63.08
54144;BME280;40050;47.324;18.792;2023-03-03T00:59:04;1006.01;;;4.42;63.35
54144;BME280;40050;47.324;18.792;2023-03-03T01:01:05;1005.98;;;4.41;63.38
54144;BME280;40050;47.324;18.792;2023-03-03T01:03:07;1005.97;;;4.46;63.39
54144;BME280;40050;47.324;18.792;2023-03-03T01:05:08;1005.97;;;4.50;63.63
54144;BME280;40050;47.324;18.792;2023-03-03T01:07:10;1005.94;;;4.51;63.63
54144;BME280;40050;47.324;18.792;2023-03-03T01:09:11;1005.92;;;4.54;63.60
54144;BME280;40050;47.324;18.792;2023-03-03T01:11:13;1005.84;;;4.57;63.59
54144;BME280;40050;47.324;18.792;2023-03-03T01:13:15;1005.82;;;4.60;63.65
54144;BME280;40050;47.324;18.792;2023-03-03T01:15:16;1005.73;;;4.59;63.58
54144;BME280;40050;47.324;18.792;2023-03-03T01:17:17;1005.48;;;4.47;63.56
54144;BME280;40050;47.324;18.792;2023-03-03T01:19:18;1005.85;;;4.74;63.46
54144;BME280;40050;47.324;18.792;2023-03-03T01:21:19;1005.86;;;4.76;63.46
54144;BME280;40050;47.324;18.792;2023-03-03T01:23:20;1005.76;;;4.75;63.52
54144;BME280;40050;47.324;18.792;2023-03-03T01:25:21;1005.76;;;4.79;63.52
54144;BME280;40050;47.324;18.792;2023-03-03T01:27:22;1005.72;;;4.80;63.40
54144;BME280;40050;47.324;18.792;2023-03-03T01:29:23;1005.73;;;4.85;63.48
54144;BME280;40050;47.324;18.792;2023-03-03T01:31:24;1005.63;;;4.80;63.51
54144;BME280;40050;47.324;18.792;2023-03-03T01:33:25;1005.66;;;4.84;63.71
54144;BME280;40050;47.324;18.792;2023-03-03T01:35:26;1005.73;;;4.89;63.77
54144;BME280;40050;47.324;18.792;2023-03-03T01:37:27;1005.52;;;4.80;63.88
54144;BME280;40050;47.324;18.792;2023-03-03T01:39:28;1005.67;;;4.94;63.83
54144;BME280;40050;47.324;18.792;2023-03-03T01:41:29;1005.62;;;4.95;63.82
54144;BME280;40050;47.324;18.792;2023-03-03T01:43:31;1005.68;;;5.00;63.90
54144;BME280;40050;47.324;18.792;2023-03-03T01:47:53;1005.66;;;5.06;63.94
54144;BME280;40050;47.324;18.792;2023-03-03T01:49:59;1005.64;;;5.09;64.14
54144;BME280;40050;47.324;18.792;2023-03-03T01:52:08;1005.60;;;5.09;64.30
54144;BME280;40050;47.324;18.792;2023-03-03T01:54:13;1005.57;;;5.10;64.06
54144;BME280;40050;47.324;18.792;2023-03-03T01:56:16;1005.56;;;5.14;64.07
54144;BME280;40050;47.324;18.792;2023-03-03T01:58:36;1005.60;;;5.19;63.95
54144;BME280;40050;47.324;18.792;2023-03-03T02:00:33;1005.59;;;5.21;64.20
54144;BME280;40050;47.324;18.792;2023-03-03T02:02:36;1005.63;;;5.25;64.24
54144;BME280;40050;47.324;18.792;2023-03-03T02:04:37;1005.57;;;5.28;64.07
54144;BME280;40050;47.324;18.792;2023-03-03T02:06:39;1005.56;;;5.31;64.12
54144;BME280;40050;47.324;18.792;2023-03-03T02:08:42;1005.56;;;5.34;64.07
54144;BME280;40050;47.324;18.792;2023-03-03T02:10:46;1005.56;;;5.38;64.02
54144;BME280;40050;47.324;18.792;2023-03-03T02:12:51;1005.51;;;5.42;64.02
54144;BME280;40050;47.324;18.792;2023-03-03T02:14:52;1005.50;;;5.42;64.03
54144;BME280;40050;47.324;18.792;2023-03-03T02:16:53;1005.48;;;5.45;64.12
54144;BME280;40050;47.324;18.792;2023-03-03T02:18:54;1005.47;;;5.47;64.21
54144;BME280;40050;47.324;18.792;2023-03-03T02:20:57;1005.49;;;5.49;64.27
54144;BME280;40050;47.324;18.792;2023-03-03T02:23:20;1005.49;;;5.51;64.43
54144;BME280;40050;47.324;18.792;2023-03-03T02:25:28;1005.44;;;5.51;64.43
54144;BME280;40050;47.324;18.792;2023-03-03T02:27:31;1005.45;;;5.51;64.50
54144;BME280;40050;47.324;18.792;2023-03-03T02:29:32;1005.45;;;5.54;64.81
54144;BME280;40050;47.324;18.792;2023-03-03T02:31:33;1005.43;;;5.59;64.99
54144;BME280;40050;47.324;18.792;2023-03-03T02:33:34;1005.41;;;5.58;65.05
54144;BME280;40050;47.324;18.792;2023-03-03T02:35:36;1005.39;;;5.63;64.99
54144;BME280;40050;47.324;18.792;2023-03-03T02:37:38;1005.41;;;5.68;64.99
54144;BME280;40050;47.324;18.792;2023-03-03T02:39:39;1005.40;;;5.71;64.92
54144;BME280;40050;47.324;18.792;2023-03-03T02:41:42;1005.31;;;5.71;64.82
54144;BME280;40050;47.324;18.792;2023-03-03T02:43:56;1005.34;;;5.77;64.96
54144;BME280;40050;47.324;18.792;2023-03-03T02:45:58;1005.33;;;5.78;64.95
54144;BME280;40050;47.324;18.792;2023-03-03T02:47:59;1005.21;;;5.74;64.82
54144;BME280;40050;47.324;18.792;2023-03-03T02:50:00;1005.30;;;5.85;64.79
54144;BME280;40050;47.324;18.792;2023-03-03T02:52:02;1005.30;;;5.87;64.76
54144;BME280;40050;47.324;18.792;2023-03-03T02:54:04;1005.23;;;5.89;64.78
54144;BME280;40050;47.324;18.792;2023-03-03T02:56:05;1005.19;;;5.89;64.78
54144;BME280;40050;47.324;18.792;2023-03-03T02:58:06;1005.17;;;5.91;64.80
54144;BME280;40050;47.324;18.792;2023-03-03T03:00:07;1005.12;;;5.92;64.84
54144;BME280;40050;47.324;18.792;2023-03-03T03:02:08;1005.15;;;5.93;64.85
54144;BME280;40050;47.324;18.792;2023-03-03T03:04:14;1005.10;;;5.93;64.96
54144;BME280;40050;47.324;18.792;2023-03-03T03:06:15;1005.08;;;5.95;64.92
54144;BME280;40050;47.324;18.792;2023-03-03T03:08:16;1005.11;;;5.98;64.93
54144;BME280;40050;47.324;18.792;2023-03-03T03:10:17;1005.14;;;6.00;64.93
54144;BME280;40050;47.324;18.792;2023-03-03T03:12:18;1005.06;;;5.99;64.90
54144;BME280;40050;47.324;18.792;2023-03-03T03:14:19;1005.09;;;6.02;64.82
54144;BME280;40050;47.324;18.792;2023-03-03T03:16:20;1004.98;;;5.97;64.70
54144;BME280;40050;47.324;18.792;2023-03-03T03:18:21;1005.08;;;6.05;64.74
54144;BME280;40050;47.324;18.792;2023-03-03T03:20:21;1005.09;;;6.09;64.79
54144;BME280;40050;47.324;18.792;2023-03-03T03:22:22;1005.08;;;6.10;64.74
54144;BME280;40050;47.324;18.792;2023-03-03T03:24:23;1004.62;;;5.84;64.79
54144;BME280;40050;47.324;18.792;2023-03-03T03:26:24;1005.07;;;6.12;64.81
54144;BME280;40050;47.324;18.792;2023-03-03T03:28:25;1005.03;;;6.14;64.84
54144;BME280;40050;47.324;18.792;2023-03-03T03:30:26;1005.01;;;6.14;64.83
54144;BME280;40050;47.324;18.792;2023-03-03T03:32:27;1005.03;;;6.18;64.80
54144;BME280;40050;47.324;18.792;2023-03-03T03:34:28;1005.02;;;6.19;64.91
54144;BME280;40050;47.324;18.792;2023-03-03T03:36:29;1005.02;;;6.22;64.98
54144;BME280;40050;47.324;18.792;2023-03-03T03:38:30;1004.98;;;6.23;65.06
54144;BME280;40050;47.324;18.792;2023-03-03T03:40:32;1004.97;;;6.24;65.09
54144;BME280;40050;47.324;18.792;2023-03-03T03:42:32;1004.95;;;6.26;65.16
54144;BME280;40050;47.324;18.792;2023-03-03T03:44:33;1004.93;;;6.26;65.10
54144;BME280;40050;47.324;18.792;2023-03-03T03:46:35;1004.95;;;6.29;64.98
54144;BME280;40050;47.324;18.792;2023-03-03T03:48:35;1004.95;;;6.33;64.95
54144;BME280;40050;47.324;18.792;2023-03-03T03:50:37;1004.99;;;6.34;65.03
54144;BME280;40050;47.324;18.792;2023-03-03T03:52:38;1005.03;;;6.35;64.99
54144;BME280;40050;47.324;18.792;2023-03-03T03:54:39;1005.00;;;6.35;64.99
54144;BME280;40050;47.324;18.792;2023-03-03T03:56:40;1005.01;;;6.37;64.90
54144;BME280;40050;47.324;18.792;2023-03-03T03:58:45;1004.80;;;6.28;64.85
54144;BME280;40050;47.324;18.792;2023-03-03T04:00:46;1004.92;;;6.38;64.78
54144;BME280;40050;47.324;18.792;2023-03-03T04:02:48;1004.93;;;6.42;64.71
54144;BME280;40050;47.324;18.792;2023-03-03T04:04:49;1004.88;;;6.42;64.66
54144;BME280;40050;47.324;18.792;2023-03-03T04:06:53;1004.89;;;6.45;64.73
54144;BME280;40050;47.324;18.792;2023-03-03T04:08:54;1004.87;;;6.46;64.75
54144;BME280;40050;47.324;18.792;2023-03-03T04:10:55;1004.45;;;6.24;64.72
54144;BME280;40050;47.324;18.792;2023-03-03T04:12:56;1004.76;;;6.49;64.90
54144;BME280;40050;47.324;18.792;2023-03-03T04:14:56;1004.80;;;6.50;64.90
54144;BME280;40050;47.324;18.792;2023-03-03T04:16:57;1004.82;;;6.54;64.86
54144;BME280;40050;47.324;18.792;2023-03-03T04:18:58;1004.83;;;6.57;64.81
54144;BME280;40050;47.324;18.792;2023-03-03T04:20:59;1004.82;;;6.59;64.71
54144;BME280;40050;47.324;18.792;2023-03-03T04:23:00;1004.77;;;6.60;64.88
54144;BME280;40050;47.324;18.792;2023-03-03T04:25:02;1004.78;;;6.62;64.80
54144;BME280;40050;47.324;18.792;2023-03-03T04:27:03;1004.77;;;6.62;64.81
54144;BME280;40050;47.324;18.792;2023-03-03T04:29:04;1004.86;;;6.66;64.74
54144;BME280;40050;47.324;18.792;2023-03-03T04:31:11;1004.51;;;6.48;64.78
54144;BME280;40050;47.324;18.792;2023-03-03T04:33:12;1004.86;;;6.68;64.75
54144;BME280;40050;47.324;18.792;2023-03-03T04:35:13;1004.86;;;6.68;64.74
54144;BME280;40050;47.324;18.792;2023-03-03T04:37:14;1004.85;;;6.69;64.77
54144;BME280;40050;47.324;18.792;2023-03-03T04:39:15;1004.83;;;6.70;64.81
54144;BME280;40050;47.324;18.792;2023-03-03T04:41:16;1004.82;;;6.72;64.84
54144;BME280;40050;47.324;18.792;2023-03-03T04:43:16;1004.81;;;6.73;64.82
54144;BME280;40050;47.324;18.792;2023-03-03T04:45:18;1004.77;;;6.72;64.78
54144;BME280;40050;47.324;18.792;2023-03-03T04:47:18;1004.75;;;6.71;64.77
54144;BME280;40050;47.324;18.792;2023-03-03T04:49:19;1004.75;;;6.71;64.71
54144;BME280;40050;47.324;18.792;2023-03-03T04:51:20;1004.75;;;6.72;64.78
54144;BME280;40050;47.324;18.792;2023-03-03T04:53:21;1004.73;;;6.73;64.81
54144;BME280;40050;47.324;18.792;2023-03-03T04:55:22;1004.79;;;6.76;64.88
54144;BME280;40050;47.324;18.792;2023-03-03T04:57:23;1004.73;;;6.74;64.85
54144;BME280;40050;47.324;18.792;2023-03-03T04:59:24;1004.74;;;6.77;64.83
54144;BME280;40050;47.324;18.792;2023-03-03T05:01:25;1004.70;;;6.75;64.87
54144;BME280;40050;47.324;18.792;2023-03-03T05:03:26;1004.67;;;6.74;64.89
54144;BME280;40050;47.324;18.792;2023-03-03T05:05:27;1004.71;;;6.78;65.04
54144;BME280;40050;47.324;18.792;2023-03-03T05:07:28;1004.73;;;6.79;65.02
54144;BME280;40050;47.324;18.792;2023-03-03T05:09:29;1004.70;;;6.79;65.08
54144;BME280;40050;47.324;18.792;2023-03-03T05:11:30;1004.75;;;6.81;65.32
54144;BME280;40050;47.324;18.792;2023-03-03T05:13:31;1004.74;;;6.80;65.33
54144;BME280;40050;47.324;18.792;2023-03-03T05:15:32;1004.77;;;6.82;65.35
54144;BME280;40050;47.324;18.792;2023-03-03T05:17:33;1004.84;;;6.81;65.37
54144;BME280;40050;47.324;18.792;2023-03-03T05:19:34;1004.80;;;6.84;65.43
54144;BME280;40050;47.324;18.792;2023-03-03T05:21:35;1004.85;;;6.87;65.41
54144;BME280;40050;47.324;18.792;2023-03-03T05:23:36;1004.85;;;6.85;65.35
54144;BME280;40050;47.324;18.792;2023-03-03T05:25:38;1004.83;;;6.88;65.24
54144;BME280;40050;47.324;18.792;2023-03-03T05:27:39;1004.84;;;6.89;65.19
54144;BME280;40050;47.324;18.792;2023-03-03T05:29:40;1004.78;;;6.88;65.18
54144;BME280;40050;47.324;18.792;2023-03-03T05:31:41;1004.80;;;6.89;65.14
54144;BME280;40050;47.324;18.792;2023-03-03T05:33:42;1004.75;;;6.94;65.10
54144;BME280;40050;47.324;18.792;2023-03-03T05:35:43;1004.85;;;6.95;65.16
54144;BME280;40050;47.324;18.792;2023-03-03T05:37:44;1004.82;;;6.96;65.28
54144;BME280;40050;47.324;18.792;2023-03-03T05:39:45;1004.82;;;6.94;65.28
54144;BME280;40050;47.324;18.792;2023-03-03T05:41:46;1004.86;;;6.96;65.20
54144;BME280;40050;47.324;18.792;2023-03-03T05:43:47;1004.87;;;6.94;65.14
54144;BME280;40050;47.324;18.792;2023-03-03T05:45:53;1004.95;;;6.98;65.15
54144;BME280;40050;47.324;18.792;2023-03-03T05:47:54;1004.92;;;6.96;65.16
54144;BME280;40050;47.324;18.792;2023-03-03T05:49:55;1004.99;;;6.98;65.16
54144;BME280;40050;47.324;18.792;2023-03-03T05:51:56;1005.01;;;6.96;65.22
54144;BME280;40050;47.324;18.792;2023-03-03T05:53:57;1005.09;;;6.98;65.37
54144;BME280;40050;47.324;18.792;2023-03-03T05:55:57;1005.14;;;6.99;65.54
54144;BME280;40050;47.324;18.792;2023-03-03T05:57:58;1004.95;;;6.89;65.36
54144;BME280;40050;47.324;18.792;2023-03-03T05:59:59;1005.17;;;7.00;65.24
54144;BME280;40050;47.324;18.792;2023-03-03T06:02:00;1004.79;;;6.75;65.27
54144;BME280;40050;47.324;18.792;2023-03-03T06:04:01;1005.24;;;6.98;65.18
54144;BME280;40050;47.324;18.792;2023-03-03T06:06:02;1005.22;;;6.93;65.23
54144;BME280;40050;47.324;18.792;2023-03-03T06:08:04;1005.14;;;6.92;65.21
54144;BME280;40050;47.324;18.792;2023-03-03T06:10:05;1005.20;;;6.95;65.21
54144;BME280;40050;47.324;18.792;2023-03-03T06:12:06;1005.13;;;6.96;65.38
54144;BME280;40050;47.324;18.792;2023-03-03T06:14:07;1005.15;;;6.96;65.42
54144;BME280;40050;47.324;18.792;2023-03-03T06:16:08;1005.20;;;7.00;65.44
54144;BME280;40050;47.324;18.792;2023-03-03T06:18:09;1005.14;;;7.01;65.47
54144;BME280;40050;47.324;18.792;2023-03-03T06:20:10;1005.21;;;7.08;65.60
54144;BME280;40050;47.324;18.792;2023-03-03T06:22:11;1005.26;;;7.08;65.54
54144;BME280;40050;47.324;18.792;2023-03-03T06:24:12;1005.23;;;7.11;65.65
54144;BME280;40050;47.324;18.792;2023-03-03T06:26:13;1005.27;;;7.12;65.75
54144;BME280;40050;47.324;18.792;2023-03-03T06:28:14;1005.34;;;7.18;65.82
54144;BME280;40050;47.324;18.792;2023-03-03T06:30:15;1005.32;;;7.21;65.74
54144;BME280;40050;47.324;18.792;2023-03-03T06:32:16;1005.35;;;7.26;65.66
54144;BME280;40050;47.324;18.792;2023-03-03T06:34:17;1005.30;;;7.30;65.62
54144;BME280;40050;47.324;18.792;2023-03-03T06:36:19;1005.33;;;7.33;65.57
54144;BME280;40050;47.324;18.792;2023-03-03T06:38:20;1005.32;;;7.33;65.76
54144;BME280;40050;47.324;18.792;2023-03-03T06:40:21;1005.30;;;7.34;65.64
54144;BME280;40050;47.324;18.792;2023-03-03T06:42:22;1005.26;;;7.37;65.40
54144;BME280;40050;47.324;18.792;2023-03-03T06:44:23;1005.30;;;7.40;65.39
54144;BME280;40050;47.324;18.792;2023-03-03T06:46:24;1005.26;;;7.38;65.46
54144;BME280;40050;47.324;18.792;2023-03-03T06:50:42;1005.25;;;7.38;65.74
54144;BME280;40050;47.324;18.792;2023-03-03T06:52:43;1005.19;;;7.40;65.74
54144;BME280;40050;47.324;18.792;2023-03-03T06:54:44;1005.23;;;7.37;65.84
54144;BME280;40050;47.324;18.792;2023-03-03T06:56:47;1005.26;;;7.35;65.97
54144;BME280;40050;47.324;18.792;2023-03-03T06:59:05;1005.19;;;7.31;66.07
54144;BME280;40050;47.324;18.792;2023-03-03T07:01:15;1005.24;;;7.31;66.32
54144;BME280;40050;47.324;18.792;2023-03-03T07:10:26;1005.29;;;7.40;66.51
54144;BME280;40050;47.324;18.792;2023-03-03T07:12:28;1005.28;;;7.39;66.47
54144;BME280;40050;47.324;18.792;2023-03-03T07:16:56;1005.35;;;7.49;66.61
54144;BME280;40050;47.324;18.792;2023-03-03T07:18:58;1005.38;;;7.52;66.53
54144;BME280;40050;47.324;18.792;2023-03-03T07:21:16;1005.40;;;7.52;66.53
54144;BME280;40050;47.324;18.792;2023-03-03T07:23:22;1005.41;;;7.50;66.70
54144;BME280;40050;47.324;18.792;2023-03-03T07:25:33;1005.32;;;7.48;66.80
54144;BME280;40050;47.324;18.792;2023-03-03T07:27:34;1005.35;;;7.54;66.75
54144;BME280;40050;47.324;18.792;2023-03-03T07:29:37;1005.44;;;7.64;66.73
54144;BME280;40050;47.324;18.792;2023-03-03T07:31:38;1005.42;;;7.71;66.63
54144;BME280;40050;47.324;18.792;2023-03-03T07:33:43;1005.40;;;7.85;66.58
54144;BME280;40050;47.324;18.792;2023-03-03T07:35:44;1005.44;;;7.89;66.29
54144;BME280;40050;47.324;18.792;2023-03-03T07:37:46;1005.40;;;7.94;66.17
54144;BME280;40050;47.324;18.792;2023-03-03T07:39:47;1005.50;;;8.05;66.15
54144;BME280;40050;47.324;18.792;2023-03-03T07:41:49;1005.54;;;8.04;66.17
54144;BME280;40050;47.324;18.792;2023-03-03T07:43:51;1005.48;;;8.03;66.12
54144;BME280;40050;47.324;18.792;2023-03-03T07:45:54;1005.54;;;8.07;66.16
54144;BME280;40050;47.324;18.792;2023-03-03T07:48:05;1005.57;;;8.10;66.27
54144;BME280;40050;47.324;18.792;2023-03-03T07:50:18;1005.63;;;8.17;65.94
54144;BME280;40050;47.324;18.792;2023-03-03T07:52:27;1005.61;;;8.19;66.07
54144;BME280;40050;47.324;18.792;2023-03-03T07:54:38;1005.63;;;8.22;66.09
54144;BME280;40050;47.324;18.792;2023-03-03T07:56:39;1005.68;;;8.28;66.13
54144;BME280;40050;47.324;18.792;2023-03-03T07:58:40;1005.68;;;8.24;66.23
54144;BME280;40050;47.324;18.792;2023-03-03T08:03:07;1005.63;;;8.26;66.30
54144;BME280;40050;47.324;18.792;2023-03-03T08:05:26;1005.69;;;8.35;66.33
54144;BME280;40050;47.324;18.792;2023-03-03T08:07:28;1005.59;;;8.35;66.24
54144;BME280;40050;47.324;18.792;2023-03-03T08:09:37;1005.69;;;8.45;66.16
54144;BME280;40050;47.324;18.792;2023-03-03T08:11:52;1005.66;;;8.52;66.26
54144;BME280;40050;47.324;18.792;2023-03-03T08:13:54;1005.68;;;8.57;66.10
54144;BME280;40050;47.324;18.792;2023-03-03T08:18:17;1005.72;;;8.70;65.61
54144;BME280;40050;47.324;18.792;2023-03-03T08:22:38;1005.77;;;8.79;65.99
54144;BME280;40050;47.324;18.792;2023-03-03T08:24:39;1005.69;;;8.82;65.88
54144;BME280;40050;47.324;18.792;2023-03-03T08:26:40;1005.74;;;8.91;65.83
54144;BME280;40050;47.324;18.792;2023-03-03T08:28:41;1005.74;;;8.94;65.67
54144;BME280;40050;47.324;18.792;2023-03-03T08:30:42;1005.72;;;8.97;65.71
54144;BME280;40050;47.324;18.792;2023-03-03T08:32:43;1005.70;;;8.98;65.41
54144;BME280;40050;47.324;18.792;2023-03-03T08:34:44;1005.73;;;9.02;65.41
54144;BME280;40050;47.324;18.792;2023-03-03T08:36:45;1005.70;;;9.07;65.11
54144;BME280;40050;47.324;18.792;2023-03-03T08:38:46;1005.63;;;9.08;65.10
54144;BME280;40050;47.324;18.792;2023-03-03T08:40:47;1005.60;;;9.11;65.16
54144;BME280;40050;47.324;18.792;2023-03-03T08:42:49;1005.58;;;9.14;65.18
54144;BME280;40050;47.324;18.792;2023-03-03T08:44:50;1005.61;;;9.20;65.07
54144;BME280;40050;47.324;18.792;2023-03-03T08:46:50;1005.62;;;9.28;64.95
54144;BME280;40050;47.324;18.792;2023-03-03T08:48:51;1005.60;;;9.31;65.08
54144;BME280;40050;47.324;18.792;2023-03-03T08:50:52;1005.66;;;9.35;65.14
54144;BME280;40050;47.324;18.792;2023-03-03T08:52:54;1005.61;;;9.37;65.01
54144;BME280;40050;47.324;18.792;2023-03-03T08:54:55;1005.66;;;9.42;65.07
54144;BME280;40050;47.324;18.792;2023-03-03T08:56:56;1005.65;;;9.49;64.96
54144;BME280;40050;47.324;18.792;2023-03-03T08:58:57;1005.70;;;9.53;64.71
54144;BME280;40050;47.324;18.792;2023-03-03T09:00:58;1005.64;;;9.60;64.69
54144;BME280;40050;47.324;18.792;2023-03-03T09:02:59;1005.64;;;9.63;64.43
54144;BME280;40050;47.324;18.792;2023-03-03T09:05:00;1005.63;;;9.65;64.40
54144;BME280;40050;47.324;18.792;2023-03-03T09:07:01;1005.62;;;9.62;64.47
54144;BME280;40050;47.324;18.792;2023-03-03T09:09:01;1005.61;;;9.65;64.64
54144;BME280;40050;47.324;18.792;2023-03-03T09:11:08;1005.63;;;9.72;64.59
54144;BME280;40050;47.324;18.792;2023-03-03T09:13:13;1005.55;;;9.75;64.68
54144;BME280;40050;47.324;18.792;2023-03-03T09:15:28;1005.61;;;9.85;64.55
54144;BME280;40050;47.324;18.792;2023-03-03T09:17:30;1005.52;;;9.82;65.00
54144;BME280;40050;47.324;18.792;2023-03-03T09:19:34;1005.62;;;9.97;65.03
54144;BME280;40050;47.324;18.792;2023-03-03T09:21:36;1005.57;;;10.06;64.96
54144;BME280;40050;47.324;18.792;2023-03-03T09:23:40;1005.61;;;10.14;64.65
54144;BME280;40050;47.324;18.792;2023-03-03T09:25:42;1005.55;;;10.18;64.58
54144;BME280;40050;47.324;18.792;2023-03-03T09:27:43;1005.58;;;10.26;64.61
54144;BME280;40050;47.324;18.792;2023-03-03T09:29:44;1005.60;;;10.29;64.54
54144;BME280;40050;47.324;18.792;2023-03-03T09:31:47;1005.63;;;10.31;64.65
54144;BME280;40050;47.324;18.792;2023-03-03T09:33:48;1005.57;;;10.40;64.54
54144;BME280;40050;47.324;18.792;2023-03-03T09:36:11;1005.60;;;10.42;64.59
54144;BME280;40050;47.324;18.792;2023-03-03T09:40:59;1005.55;;;10.54;64.51
54144;BME280;40050;47.324;18.792;2023-03-03T09:42:35;1005.56;;;10.58;64.34
54144;BME280;40050;47.324;18.792;2023-03-03T09:49:30;1005.61;;;10.66;63.89
54144;BME280;40050;47.324;18.792;2023-03-03T09:51:38;1005.65;;;10.71;63.82
54144;BME280;40050;47.324;18.792;2023-03-03T09:55:59;1005.56;;;10.79;63.53
54144;BME280;40050;47.324;18.792;2023-03-03T10:02:40;1005.61;;;10.95;63.28
54144;BME280;40050;47.324;18.792;2023-03-03T10:11:31;1005.56;;;11.24;63.58
54144;BME280;40050;47.324;18.792;2023-03-03T10:13:43;1005.52;;;11.37;62.81
54144;BME280;40050;47.324;18.792;2023-03-03T10:18:29;1005.49;;;11.47;62.59
54144;BME280;40050;47.324;18.792;2023-03-03T10:20:37;1005.43;;;11.47;62.16
54144;BME280;40050;47.324;18.792;2023-03-03T10:22:45;1005.44;;;11.58;61.63
54144;BME280;40050;47.324;18.792;2023-03-03T10:25:02;1005.28;;;11.52;61.51
54144;BME280;40050;47.324;18.792;2023-03-03T10:27:11;1005.42;;;11.59;61.45
54144;BME280;40050;47.324;18.792;2023-03-03T10:31:49;1005.34;;;11.64;61.04
54144;BME280;40050;47.324;18.792;2023-03-03T10:36:15;1005.34;;;11.66;60.50
54144;BME280;40050;47.324;18.792;2023-03-03T10:38:23;1005.29;;;11.81;60.08
54144;BME280;40050;47.324;18.792;2023-03-03T10:42:49;1005.28;;;11.79;60.52
54144;BME280;40050;47.324;18.792;2023-03-03T10:54:54;1005.26;;;12.02;59.16
54144;BME280;40050;47.324;18.792;2023-03-03T10:56:48;1005.26;;;12.08;58.98
54144;BME280;40050;47.324;18.792;2023-03-03T10:58:44;1005.25;;;12.18;58.55
54144;BME280;40050;47.324;18.792;2023-03-03T11:03:15;1005.16;;;12.27;57.95
54144;BME280;40050;47.324;18.792;2023-03-03T11:05:27;1005.18;;;12.29;58.17
54144;BME280;40050;47.324;18.792;2023-03-03T11:08:14;1005.11;;;12.34;57.52
54144;BME280;40050;47.324;18.792;2023-03-03T11:10:01;1005.13;;;12.38;57.63
54144;BME280;40050;47.324;18.792;2023-03-03T11:12:08;1005.12;;;12.39;57.49
54144;BME280;40050;47.324;18.792;2023-03-03T11:14:17;1005.08;;;12.41;57.81
54144;BME280;40050;47.324;18.792;2023-03-03T11:18:49;1005.13;;;12.67;58.07
54144;BME280;40050;47.324;18.792;2023-03-03T11:25:49;1004.99;;;13.12;57.23
54144;BME280;40050;47.324;18.792;2023-03-03T11:27:54;1004.98;;;13.20;55.65
54144;BME280;40050;47.324;18.792;2023-03-03T11:30:02;1004.96;;;13.29;55.98
54144;BME280;40050;47.324;18.792;2023-03-03T11:36:50;1004.79;;;13.53;54.67
54144;BME280;40050;47.324;18.792;2023-03-03T11:39:02;1004.79;;;13.68;54.37
54144;BME280;40050;47.324;18.792;2023-03-03T11:41:19;1004.62;;;13.61;53.89
54144;BME280;40050;47.324;18.792;2023-03-03T11:43:26;1004.75;;;13.82;54.06
54144;BME280;40050;47.324;18.792;2023-03-03T11:45:46;1004.68;;;13.95;54.28
54144;BME280;40050;47.324;18.792;2023-03-03T11:48:04;1004.75;;;14.13;54.23
54144;BME280;40050;47.324;18.792;2023-03-03T11:57:09;1004.61;;;14.49;52.33
54144;BME280;40050;47.324;18.792;2023-03-03T11:59:25;1004.54;;;14.62;51.51
54144;BME280;40050;47.324;18.792;2023-03-03T12:10:48;1004.51;;;15.08;50.58
54144;BME280;40050;47.324;18.792;2023-03-03T12:13:05;1004.40;;;15.08;49.75
54144;BME280;40050;47.324;18.792;2023-03-03T12:17:59;1004.40;;;15.09;49.56
54144;BME280;40050;47.324;18.792;2023-03-03T12:20:14;1004.32;;;15.08;49.50
54144;BME280;40050;47.324;18.792;2023-03-03T12:22:18;1004.40;;;15.07;50.06
54144;BME280;40050;47.324;18.792;2023-03-03T12:24:31;1004.39;;;15.13;49.89
54144;BME280;40050;47.324;18.792;2023-03-03T12:26:43;1004.35;;;15.09;49.38
54144;BME280;40050;47.324;18.792;2023-03-03T12:28:53;1004.33;;;15.23;49.28
54144;BME280;40050;47.324;18.792;2023-03-03T12:30:59;1004.11;;;15.13;48.47
54144;BME280;40050;47.324;18.792;2023-03-03T12:35:19;1004.15;;;15.25;48.05
54144;BME280;40050;47.324;18.792;2023-03-03T12:37:29;1004.16;;;15.29;48.03
54144;BME280;40050;47.324;18.792;2023-03-03T12:41:52;1004.17;;;15.55;48.17
54144;BME280;40050;47.324;18.792;2023-03-03T12:48:42;1004.06;;;15.65;47.74
54144;BME280;40050;47.324;18.792;2023-03-03T12:50:52;1004.13;;;15.66;47.21